Time,TemperatureF,DewpointF,PressureIn,WindDirection,WindDirectionDegrees,WindSpeedMPH,WindSpeedGustMPH,Humidity,HourlyPrecipIn,Conditions,Clouds,dailyrainin,SoftwareType,DateUTC
2014-04-07 00:05:00,60.0,49.4,30.14,WNW,299,0.0,1.0,68,0.00,,,0.00,Wunderground v.1.15,2014-04-07 07:05:00,
2014-04-07 00:15:00,61.1,49.2,30.13,WNW,299,0.0,1.0,65,0.00,,,0.00,Wunderground v.1.15,2014-04-07 07:15:00,
2014-04-07 00:25:00,61.8,49.9,30.13,WNW,299,0.0,1.0,65,0.00,,,0.00,Wunderground v.1.15,2014-04-07 07:25:00,
2014-04-07 00:30:00,60.7,49.7,30.13,WNW,299,0.0,0.0,67,0.00,,,0.00,Wunderground v.1.15,2014-04-07 07:30:00,
2014-04-07 00:35:00,60.5,49.5,30.13,WNW,299,0.0,0.0,67,0.00,,,0.00,Wunderground v.1.15,2014-04-07 07:35:00,
2014-04-07 00:45:00,59.6,50.6,30.13,WNW,299,0.0,0.0,72,0.00,,,0.00,Wunderground v.1.15,2014-04-07 07:45:00,
2014-04-07 00:50:00,58.9,49.9,30.13,WNW,299,0.0,0.0,72,0.00,,,0.00,Wunderground v.1.15,2014-04-07 07:50:00,
2014-04-07 00:55:00,58.4,49.8,30.13,WNW,299,0.0,0.0,73,0.00,,,0.00,Wunderground v.1.15,2014-04-07 07:55:00,
2014-04-07 01:00:00,57.9,49.7,30.13,WNW,299,0.0,0.0,74,0.00,,,0.00,Wunderground v.1.15,2014-04-07 08:00:00,
2014-04-07 01:10:00,57.6,49.7,30.13,WNW,299,0.0,0.0,75,0.00,,,0.00,Wunderground v.1.15,2014-04-07 08:10:00,
2014-04-07 01:15:00,57.4,49.9,30.13,WNW,299,0.0,0.0,76,0.00,,,0.00,Wunderground v.1.15,2014-04-07 08:15:00,
2014-04-07 01:20:00,57.2,49.3,30.13,WNW,299,0.0,0.0,75,0.00,,,0.00,Wunderground v.1.15,2014-04-07 08:20:00,
2014-04-07 01:25:00,57.1,49.6,30.13,WNW,299,0.0,0.0,76,0.00,,,0.00,Wunderground v.1.15,2014-04-07 08:25:00,
2014-04-07 01:30:00,56.9,49.4,30.13,WNW,299,0.0,0.0,76,0.00,,,0.00,Wunderground v.1.15,2014-04-07 08:30:00,
2014-04-07 01:40:00,56.8,49.7,30.13,WNW,299,0.0,0.0,77,0.00,,,0.00,Wunderground v.1.15,2014-04-07 08:40:00,
2014-04-07 01:45:00,56.7,49.6,30.13,WNW,299,0.0,0.0,77,0.00,,,0.00,Wunderground v.1.15,2014-04-07 08:45:00,
2014-04-07 01:50:00,56.6,49.5,30.13,WNW,299,0.0,0.0,77,0.00,,,0.00,Wunderground v.1.15,2014-04-07 08:50:00,
2014-04-07 01:55:00,56.6,49.5,30.13,WNW,299,0.0,0.0,77,0.00,,,0.00,Wunderground v.1.15,2014-04-07 08:55:00,
2014-04-07 02:00:00,56.5,49.4,30.13,WNW,299,0.0,0.0,77,0.00,,,0.00,Wunderground v.1.15,2014-04-07 09:00:00,
2014-04-07 02:10:00,56.2,49.4,30.13,WNW,299,0.0,0.0,78,0.00,,,0.00,Wunderground v.1.15,2014-04-07 09:10:00,
2014-04-07 02:15:00,56.1,49.7,30.13,WNW,299,0.0,0.0,79,0.00,,,0.00,Wunderground v.1.15,2014-04-07 09:15:00,
2014-04-07 02:20:00,56.1,49.7,30.13,WNW,299,0.0,0.0,79,0.00,,,0.00,Wunderground v.1.15,2014-04-07 09:20:00,
2014-04-07 02:30:00,56.3,50.2,30.12,WNW,299,0.0,0.0,80,0.00,,,0.00,Wunderground v.1.15,2014-04-07 09:30:00,
2014-04-07 02:35:00,56.7,49.9,30.12,WNW,299,0.0,0.0,78,0.00,,,0.00,Wunderground v.1.15,2014-04-07 09:35:00,
2014-04-07 02:40:00,57.3,50.1,30.12,WNW,299,0.0,0.0,77,0.00,,,0.00,Wunderground v.1.15,2014-04-07 09:40:00,
2014-04-07 02:50:00,57.1,50.0,30.12,WNW,299,0.0,0.0,77,0.00,,,0.00,Wunderground v.1.15,2014-04-07 09:50:00,
2014-04-07 02:55:00,56.7,49.9,30.12,WNW,299,0.0,0.0,78,0.00,,,0.00,Wunderground v.1.15,2014-04-07 09:55:00,
2014-04-07 03:00:00,56.5,50.4,30.12,WNW,299,0.0,0.0,80,0.00,,,0.00,Wunderground v.1.15,2014-04-07 10:00:00,
2014-04-07 03:10:00,56.2,50.1,30.12,WNW,299,0.0,0.0,80,0.00,,,0.00,Wunderground v.1.15,2014-04-07 10:10:00,
2014-04-07 03:15:00,56.2,50.1,30.12,WNW,299,0.0,0.0,80,0.00,,,0.00,Wunderground v.1.15,2014-04-07 10:15:00,
2014-04-07 03:20:00,56.2,50.4,30.12,WNW,299,0.0,0.0,81,0.00,,,0.00,Wunderground v.1.15,2014-04-07 10:20:00,
2014-04-07 03:30:00,55.9,50.2,30.12,WNW,299,0.0,0.0,81,0.00,,,0.00,Wunderground v.1.15,2014-04-07 10:30:00,
2014-04-07 03:35:00,55.8,50.4,30.12,WNW,299,0.0,0.0,82,0.00,,,0.00,Wunderground v.1.15,2014-04-07 10:35:00,
2014-04-07 03:40:00,55.7,50.3,30.12,WNW,299,0.0,0.0,82,0.00,,,0.00,Wunderground v.1.15,2014-04-07 10:40:00,
2014-04-07 03:45:00,55.5,50.4,30.12,WNW,299,0.0,0.0,83,0.00,,,0.00,Wunderground v.1.15,2014-04-07 10:45:00,
2014-04-07 03:50:00,55.5,50.4,30.12,WNW,299,0.0,0.0,83,0.00,,,0.00,Wunderground v.1.15,2014-04-07 10:50:00,
2014-04-07 03:55:00,55.7,50.6,30.12,WNW,299,0.0,0.0,83,0.00,,,0.00,Wunderground v.1.15,2014-04-07 10:55:00,
2014-04-07 04:05:00,56.0,50.6,30.12,WNW,299,0.0,0.0,82,0.00,,,0.00,Wunderground v.1.15,2014-04-07 11:05:00,
2014-04-07 04:10:00,56.2,50.8,30.12,WNW,299,0.0,0.0,82,0.00,,,0.00,Wunderground v.1.15,2014-04-07 11:10:00,
2014-04-07 04:20:00,56.0,50.6,30.12,WNW,299,0.0,0.0,82,0.00,,,0.00,Wunderground v.1.15,2014-04-07 11:20:00,
2014-04-07 04:25:00,55.8,50.7,30.12,WNW,299,0.0,0.0,83,0.00,,,0.00,Wunderground v.1.15,2014-04-07 11:25:00,
2014-04-07 04:30:00,55.5,50.4,30.13,WNW,299,0.0,0.0,83,0.00,,,0.00,Wunderground v.1.15,2014-04-07 11:30:00,
2014-04-07 04:35:00,55.4,50.3,30.12,WNW,299,0.0,0.0,83,0.00,,,0.00,Wunderground v.1.15,2014-04-07 11:35:00,
2014-04-07 04:40:00,55.3,50.2,30.12,WNW,299,0.0,0.0,83,0.00,,,0.00,Wunderground v.1.15,2014-04-07 11:40:00,
2014-04-07 04:45:00,55.2,50.4,30.12,WNW,299,0.0,0.0,84,0.00,,,0.00,Wunderground v.1.15,2014-04-07 11:45:00,
2014-04-07 04:50:00,55.2,50.4,30.12,WNW,299,0.0,0.0,84,0.00,,,0.00,Wunderground v.1.15,2014-04-07 11:50:00,
2014-04-07 04:55:00,55.2,50.4,30.12,WNW,299,0.0,0.0,84,0.00,,,0.00,Wunderground v.1.15,2014-04-07 11:55:00,
2014-04-07 05:00:00,55.2,50.4,30.12,WNW,299,0.0,0.0,84,0.00,,,0.00,Wunderground v.1.15,2014-04-07 12:00:00,
2014-04-07 05:05:00,55.2,50.4,30.12,WNW,299,0.0,0.0,84,0.00,,,0.00,Wunderground v.1.15,2014-04-07 12:05:00,
2014-04-07 05:15:00,55.3,50.2,30.12,WNW,299,0.0,0.0,83,0.00,,,0.00,Wunderground v.1.15,2014-04-07 12:15:00,
2014-04-07 05:20:00,55.3,50.5,30.12,WNW,299,0.0,0.0,84,0.00,,,0.00,Wunderground v.1.15,2014-04-07 12:20:00,
2014-04-07 05:25:00,55.4,50.6,30.12,WNW,299,0.0,0.0,84,0.00,,,0.00,Wunderground v.1.15,2014-04-07 12:25:00,
2014-04-07 05:35:00,55.4,50.6,30.13,WNW,299,0.0,0.0,84,0.00,,,0.00,Wunderground v.1.15,2014-04-07 12:35:00,
2014-04-07 05:40:00,55.4,50.6,30.13,WNW,299,0.0,0.0,84,0.00,,,0.00,Wunderground v.1.15,2014-04-07 12:40:00,
2014-04-07 05:45:00,55.3,50.5,30.13,WNW,299,0.0,0.0,84,0.00,,,0.00,Wunderground v.1.15,2014-04-07 12:45:00,
2014-04-07 05:50:00,55.3,50.5,30.13,WNW,299,0.0,0.0,84,0.00,,,0.00,Wunderground v.1.15,2014-04-07 12:50:00,
2014-04-07 06:00:00,54.9,50.5,30.13,WNW,299,0.0,0.0,85,0.00,,,0.00,Wunderground v.1.15,2014-04-07 13:00:00,
2014-04-07 06:05:00,54.7,50.3,30.13,WNW,299,0.0,0.0,85,0.00,,,0.00,Wunderground v.1.15,2014-04-07 13:05:00,
2014-04-07 06:10:00,54.8,50.1,30.13,WNW,299,0.0,0.0,84,0.00,,,0.00,Wunderground v.1.15,2014-04-07 13:10:00,
2014-04-07 06:15:00,54.9,49.8,30.13,WNW,299,0.0,0.0,83,0.00,,,0.00,Wunderground v.1.15,2014-04-07 13:15:00,
2014-04-07 06:25:00,55.5,49.8,30.13,SE,136,0.0,0.0,81,0.00,,,0.00,Wunderground v.1.15,2014-04-07 13:25:00,
2014-04-07 06:30:00,55.5,49.4,30.14,SE,137,0.0,0.0,80,0.00,,,0.00,Wunderground v.1.15,2014-04-07 13:30:00,
2014-04-07 06:35:00,55.5,49.4,30.14,SSE,156,0.0,0.0,80,0.00,,,0.00,Wunderground v.1.15,2014-04-07 13:35:00,
2014-04-07 06:40:00,55.5,49.4,30.14,SSE,156,0.0,0.0,80,0.00,,,0.00,Wunderground v.1.15,2014-04-07 13:40:00,
2014-04-07 06:50:00,55.4,49.0,30.14,SSE,148,0.0,0.0,79,0.00,,,0.00,Wunderground v.1.15,2014-04-07 13:50:00,
2014-04-07 06:55:00,55.4,49.0,30.14,SSE,149,0.0,0.0,79,0.00,,,0.00,Wunderground v.1.15,2014-04-07 13:55:00,
2014-04-07 07:00:00,55.5,49.1,30.14,SSE,149,0.0,0.0,79,0.00,,,0.00,Wunderground v.1.15,2014-04-07 14:00:00,
2014-04-07 07:05:00,55.4,49.0,30.14,SSE,149,0.0,0.0,79,0.00,,,0.00,Wunderground v.1.15,2014-04-07 14:05:00,
2014-04-07 07:15:00,55.4,48.7,30.14,SSE,149,0.0,0.0,78,0.00,,,0.00,Wunderground v.1.15,2014-04-07 14:15:00,
2014-04-07 07:20:00,55.5,48.8,30.14,SSE,149,0.0,0.0,78,0.00,,,0.00,Wunderground v.1.15,2014-04-07 14:20:00,
2014-04-07 07:25:00,55.7,48.6,30.15,SSE,149,0.0,0.0,77,0.00,,,0.00,Wunderground v.1.15,2014-04-07 14:25:00,
2014-04-07 07:30:00,56.0,48.9,30.15,SSE,149,0.0,0.0,77,0.00,,,0.00,Wunderground v.1.15,2014-04-07 14:30:00,
2014-04-07 07:35:00,56.0,49.2,30.15,SSE,149,0.0,0.0,78,0.00,,,0.00,Wunderground v.1.15,2014-04-07 14:35:00,
2014-04-07 07:40:00,56.2,49.1,30.15,SSE,149,0.0,0.0,77,0.00,,,0.00,Wunderground v.1.15,2014-04-07 14:40:00,
2014-04-07 07:50:00,56.6,49.1,30.15,SSE,149,0.0,0.0,76,0.00,,,0.00,Wunderground v.1.15,2014-04-07 14:50:00,
2014-04-07 07:55:00,56.9,49.4,30.15,SSE,149,0.0,0.0,76,0.00,,,0.00,Wunderground v.1.15,2014-04-07 14:55:00,
2014-04-07 08:00:00,57.3,49.1,30.15,SSE,149,0.0,0.0,74,0.00,,,0.00,Wunderground v.1.15,2014-04-07 15:00:00,
2014-04-07 08:10:00,58.3,49.7,30.15,SSE,149,0.0,0.0,73,0.00,,,0.00,Wunderground v.1.15,2014-04-07 15:10:00,
2014-04-07 08:15:00,58.9,49.9,30.15,SSE,149,0.0,0.0,72,0.00,,,0.00,Wunderground v.1.15,2014-04-07 15:15:00,
2014-04-07 08:20:00,59.4,50.4,30.15,SSE,149,0.0,0.0,72,0.00,,,0.00,Wunderground v.1.15,2014-04-07 15:20:00,
2014-04-07 08:25:00,60.0,50.6,30.15,SSE,149,0.0,0.0,71,0.00,,,0.00,Wunderground v.1.15,2014-04-07 15:25:00,
2014-04-07 08:30:00,60.4,50.6,30.16,SSE,149,0.0,0.0,70,0.00,,,0.00,Wunderground v.1.15,2014-04-07 15:30:00,
2014-04-07 08:35:00,60.8,50.2,30.16,SSE,150,0.0,0.0,68,0.00,,,0.00,Wunderground v.1.15,2014-04-07 15:35:00,
2014-04-07 08:45:00,61.3,49.8,30.16,SE,132,0.0,0.0,66,0.00,,,0.00,Wunderground v.1.15,2014-04-07 15:45:00,
2014-04-07 08:50:00,61.6,49.3,30.16,SE,133,0.0,0.0,64,0.00,,,0.00,Wunderground v.1.15,2014-04-07 15:50:00,
2014-04-07 09:00:00,62.5,50.6,30.16,SE,134,0.0,0.0,65,0.00,,,0.00,Wunderground v.1.15,2014-04-07 16:00:00,
2014-04-07 09:05:00,62.7,49.9,30.16,SE,134,0.0,0.0,63,0.00,,,0.00,Wunderground v.1.15,2014-04-07 16:05:00,
2014-04-07 09:10:00,63.1,49.9,30.16,SE,134,0.0,0.0,62,0.00,,,0.00,Wunderground v.1.15,2014-04-07 16:10:00,
2014-04-07 09:15:00,63.4,50.1,30.16,SE,134,0.0,0.0,62,0.00,,,0.00,Wunderground v.1.15,2014-04-07 16:15:00,
2014-04-07 09:20:00,63.9,50.2,30.16,SE,134,0.0,1.0,61,0.00,,,0.00,Wunderground v.1.15,2014-04-07 16:20:00,
2014-04-07 09:30:00,64.9,49.8,30.16,SE,139,1.0,1.0,58,0.00,,,0.00,Wunderground v.1.15,2014-04-07 16:30:00,
2014-04-07 09:35:00,65.5,48.9,30.16,SE,139,0.0,1.0,55,0.00,,,0.00,Wunderground v.1.15,2014-04-07 16:35:00,
2014-04-07 09:40:00,65.6,49.5,30.17,SE,140,1.0,1.0,56,0.00,,,0.00,Wunderground v.1.15,2014-04-07 16:40:00,
2014-04-07 09:45:00,66.1,50.4,30.17,SE,140,1.0,1.0,57,0.00,,,0.00,Wunderground v.1.15,2014-04-07 16:45:00,
2014-04-07 09:50:00,66.6,49.4,30.17,SE,130,1.0,1.0,54,0.00,,,0.00,Wunderground v.1.15,2014-04-07 16:50:00,
2014-04-07 09:55:00,67.1,49.4,30.17,SE,134,1.0,1.0,53,0.00,,,0.00,Wunderground v.1.15,2014-04-07 16:55:00,
2014-04-07 10:00:00,67.0,49.8,30.17,SE,142,1.0,2.0,54,0.00,,,0.00,Wunderground v.1.15,2014-04-07 17:00:00,
2014-04-07 10:05:00,67.1,50.4,30.17,SSE,152,1.0,2.0,55,0.00,,,0.00,Wunderground v.1.15,2014-04-07 17:05:00,
2014-04-07 10:10:00,67.5,50.8,30.17,SSE,151,1.0,1.0,55,0.00,,,0.00,Wunderground v.1.15,2014-04-07 17:10:00,
2014-04-07 10:20:00,67.9,50.1,30.17,SE,146,1.0,1.0,53,0.00,,,0.00,Wunderground v.1.15,2014-04-07 17:20:00,
2014-04-07 10:25:00,68.5,50.2,30.17,SSE,147,1.0,1.0,52,0.00,,,0.00,Wunderground v.1.15,2014-04-07 17:25:00,
2014-04-07 10:30:00,68.9,50.5,30.17,ENE,78,1.0,1.0,52,0.00,,,0.00,Wunderground v.1.15,2014-04-07 17:30:00,
2014-04-07 10:35:00,69.4,51.0,30.17,ENE,70,0.0,1.0,52,0.00,,,0.00,Wunderground v.1.15,2014-04-07 17:35:00,
2014-04-07 10:40:00,69.7,49.7,30.17,SSE,157,1.0,1.0,49,0.00,,,0.00,Wunderground v.1.15,2014-04-07 17:40:00,
2014-04-07 10:45:00,70.1,50.6,30.17,SE,124,1.0,2.0,50,0.00,,,0.00,Wunderground v.1.15,2014-04-07 17:45:00,
2014-04-07 10:50:00,70.2,51.2,30.17,East,79,1.0,1.0,51,0.00,,,0.00,Wunderground v.1.15,2014-04-07 17:50:00,
2014-04-07 11:00:00,70.0,51.0,30.17,ENE,63,1.0,1.0,51,0.00,,,0.00,Wunderground v.1.15,2014-04-07 18:00:00,
2014-04-07 11:05:00,69.7,50.8,30.17,SE,126,2.0,3.0,51,0.00,,,0.00,Wunderground v.1.15,2014-04-07 18:05:00,
2014-04-07 11:10:00,70.1,51.1,30.17,ENE,65,2.0,2.0,51,0.00,,,0.00,Wunderground v.1.15,2014-04-07 18:10:00,
2014-04-07 11:15:00,70.1,50.6,30.17,SSE,151,2.0,3.0,50,0.00,,,0.00,Wunderground v.1.15,2014-04-07 18:15:00,
2014-04-07 11:25:00,70.3,51.8,30.17,SE,132,2.0,3.0,52,0.00,,,0.00,Wunderground v.1.15,2014-04-07 18:25:00,
2014-04-07 11:30:00,70.5,52.0,30.17,East,94,2.0,2.0,52,0.00,,,0.00,Wunderground v.1.15,2014-04-07 18:30:00,
2014-04-07 11:35:00,70.4,51.4,30.17,ENE,69,2.0,2.0,51,0.00,,,0.00,Wunderground v.1.15,2014-04-07 18:35:00,
2014-04-07 11:40:00,70.4,51.4,30.17,ESE,120,2.0,3.0,51,0.00,,,0.00,Wunderground v.1.15,2014-04-07 18:40:00,
2014-04-07 11:50:00,70.8,51.8,30.17,SE,126,1.0,1.0,51,0.00,,,0.00,Wunderground v.1.15,2014-04-07 18:50:00,
2014-04-07 11:55:00,71.1,52.6,30.17,ESE,121,1.0,1.0,52,0.00,,,0.00,Wunderground v.1.15,2014-04-07 18:55:00,
2014-04-07 12:00:00,71.6,51.4,30.17,SE,129,1.0,1.0,49,0.00,,,0.00,Wunderground v.1.15,2014-04-07 19:00:00,
2014-04-07 12:05:00,72.1,52.4,30.17,SE,128,0.0,1.0,50,0.00,,,0.00,Wunderground v.1.15,2014-04-07 19:05:00,
2014-04-07 12:10:00,72.6,52.9,30.17,SE,128,0.0,1.0,50,0.00,,,0.00,Wunderground v.1.15,2014-04-07 19:10:00,
2014-04-07 12:15:00,72.5,51.1,30.17,SW,229,1.0,3.0,47,0.00,,,0.00,Wunderground v.1.15,2014-04-07 19:15:00,
2014-04-07 12:20:00,72.6,51.8,30.16,West,277,1.0,1.0,48,0.00,,,0.00,Wunderground v.1.15,2014-04-07 19:20:00,
2014-04-07 12:25:00,72.8,50.2,30.16,WNW,290,1.0,4.0,45,0.00,,,0.00,Wunderground v.1.15,2014-04-07 19:25:00,
2014-04-07 12:30:00,72.6,50.6,30.16,NNW,348,1.0,1.0,46,0.00,,,0.00,Wunderground v.1.15,2014-04-07 19:30:00,
2014-04-07 12:35:00,73.0,51.6,30.16,NNW,333,1.0,1.0,47,0.00,,,0.00,Wunderground v.1.15,2014-04-07 19:35:00,
2014-04-07 12:40:00,73.4,51.9,30.16,ESE,105,1.0,1.0,47,0.00,,,0.00,Wunderground v.1.15,2014-04-07 19:40:00,
2014-04-07 12:45:00,73.6,53.3,30.16,ENE,71,1.0,1.0,49,0.00,,,0.00,Wunderground v.1.15,2014-04-07 19:45:00,
2014-04-07 12:55:00,73.7,51.0,30.16,WSW,252,2.0,2.0,45,0.00,,,0.00,Wunderground v.1.15,2014-04-07 19:55:00,
2014-04-07 13:00:00,74.1,52.0,30.16,SE,127,2.0,3.0,46,0.00,,,0.00,Wunderground v.1.15,2014-04-07 20:00:00,
2014-04-07 13:05:00,73.9,53.0,30.15,ENE,68,1.0,3.0,48,0.00,,,0.00,Wunderground v.1.15,2014-04-07 20:05:00,
2014-04-07 13:15:00,74.3,55.0,30.15,SE,140,1.0,1.0,51,0.00,,,0.00,Wunderground v.1.15,2014-04-07 20:15:00,
2014-04-07 13:20:00,74.4,54.5,30.15,NE,41,2.0,2.0,50,0.00,,,0.00,Wunderground v.1.15,2014-04-07 20:20:00,
2014-04-07 13:25:00,74.8,53.2,30.15,NW,306,1.0,2.0,47,0.00,,,0.00,Wunderground v.1.15,2014-04-07 20:25:00,
2014-04-07 13:35:00,75.1,53.5,30.15,SE,130,1.0,1.0,47,0.00,,,0.00,Wunderground v.1.15,2014-04-07 20:35:00,
2014-04-07 13:40:00,75.0,53.4,30.15,NW,304,1.0,1.0,47,0.00,,,0.00,Wunderground v.1.15,2014-04-07 20:40:00,
2014-04-07 13:45:00,75.4,53.2,30.15,North,355,1.0,4.0,46,0.00,,,0.00,Wunderground v.1.15,2014-04-07 20:45:00,
2014-04-07 13:55:00,76.0,55.5,30.15,East,93,1.0,1.0,49,0.00,,,0.00,Wunderground v.1.15,2014-04-07 20:55:00,
2014-04-07 14:00:00,76.2,55.1,30.15,West,281,1.0,1.0,48,0.00,,,0.00,Wunderground v.1.15,2014-04-07 21:00:00,
2014-04-07 14:10:00,75.7,53.4,30.14,ESE,123,1.0,1.0,46,0.00,,,0.00,Wunderground v.1.15,2014-04-07 21:10:00,
2014-04-07 14:15:00,75.8,54.1,30.14,SE,145,1.0,1.0,47,0.00,,,0.00,Wunderground v.1.15,2014-04-07 21:15:00,
2014-04-07 14:20:00,75.7,54.0,30.14,SSE,152,1.0,4.0,47,0.00,,,0.00,Wunderground v.1.15,2014-04-07 21:20:00,
2014-04-07 14:30:00,74.9,54.4,30.13,SE,127,2.0,2.0,49,0.00,,,0.00,Wunderground v.1.15,2014-04-07 21:30:00,
2014-04-07 14:35:00,75.3,54.8,30.13,SE,131,2.0,2.0,49,0.00,,,0.00,Wunderground v.1.15,2014-04-07 21:35:00,
2014-04-07 14:40:00,75.9,54.2,30.13,ENE,71,1.0,1.0,47,0.00,,,0.00,Wunderground v.1.15,2014-04-07 21:40:00,
2014-04-07 14:50:00,76.3,52.8,30.13,ENE,67,1.0,5.0,44,0.00,,,0.00,Wunderground v.1.15,2014-04-07 21:50:00,
2014-04-07 14:55:00,76.4,51.6,30.13,SE,144,1.0,5.0,42,0.00,,,0.00,Wunderground v.1.15,2014-04-07 21:55:00,
2014-04-07 15:00:00,76.8,52.6,30.13,NE,51,1.0,2.0,43,0.00,,,0.00,Wunderground v.1.15,2014-04-07 22:00:00,
2014-04-07 15:05:00,77.4,52.5,30.13,SE,126,1.0,2.0,42,0.00,,,0.00,Wunderground v.1.15,2014-04-07 22:05:00,
2014-04-07 15:10:00,77.9,51.6,30.12,South,174,1.0,1.0,40,0.00,,,0.00,Wunderground v.1.15,2014-04-07 22:10:00,
2014-04-07 15:15:00,77.9,51.6,30.12,NE,53,1.0,1.0,40,0.00,,,0.00,Wunderground v.1.15,2014-04-07 22:15:00,
2014-04-07 15:25:00,77.4,51.9,30.12,SE,132,1.0,2.0,41,0.00,,,0.00,Wunderground v.1.15,2014-04-07 22:25:00,
2014-04-07 15:30:00,77.3,52.4,30.12,ENE,66,1.0,3.0,42,0.00,,,0.00,Wunderground v.1.15,2014-04-07 22:30:00,
2014-04-07 15:35:00,76.9,52.7,30.11,ESE,123,2.0,3.0,43,0.00,,,0.00,Wunderground v.1.15,2014-04-07 22:35:00,
2014-04-07 15:40:00,77.2,53.0,30.11,ESE,121,2.0,4.0,43,0.00,,,0.00,Wunderground v.1.15,2014-04-07 22:40:00,
2014-04-07 15:45:00,77.1,52.2,30.11,East,99,2.0,4.0,42,0.00,,,0.00,Wunderground v.1.15,2014-04-07 22:45:00,
2014-04-07 15:55:00,77.3,51.1,30.11,South,171,1.0,2.0,40,0.00,,,0.00,Wunderground v.1.15,2014-04-07 22:55:00,
2014-04-07 16:00:00,77.3,51.8,30.11,SE,135,2.0,4.0,41,0.00,,,0.00,Wunderground v.1.15,2014-04-07 23:00:00,
2014-04-07 16:05:00,77.1,51.6,30.10,SE,141,2.0,4.0,41,0.00,,,0.00,Wunderground v.1.15,2014-04-07 23:05:00,
2014-04-07 16:10:00,77.2,53.0,30.10,SW,228,2.0,2.0,43,0.00,,,0.00,Wunderground v.1.15,2014-04-07 23:10:00,
2014-04-07 16:15:00,77.5,50.6,30.10,SE,136,1.0,2.0,39,0.00,,,0.00,Wunderground v.1.15,2014-04-07 23:15:00,
2014-04-07 16:20:00,77.5,49.9,30.10,ESE,105,1.0,1.0,38,0.00,,,0.00,Wunderground v.1.15,2014-04-07 23:20:00,
2014-04-07 16:30:00,77.8,50.9,30.10,ESE,112,1.0,3.0,39,0.00,,,0.00,Wunderground v.1.15,2014-04-07 23:30:00,
2014-04-07 16:40:00,77.7,50.1,30.10,SE,143,1.0,1.0,38,0.00,,,0.00,Wunderground v.1.15,2014-04-07 23:40:00,
2014-04-07 16:45:00,77.9,48.8,30.10,North,5,1.0,1.0,36,0.00,,,0.00,Wunderground v.1.15,2014-04-07 23:45:00,
2014-04-07 16:50:00,78.1,50.4,30.09,SE,128,1.0,1.0,38,0.00,,,0.00,Wunderground v.1.15,2014-04-07 23:50:00,
2014-04-07 16:55:00,78.5,52.2,30.09,ENE,63,0.0,1.0,40,0.00,,,0.00,Wunderground v.1.15,2014-04-07 23:55:00,
2014-04-07 17:00:00,78.2,51.2,30.09,SE,128,1.0,1.0,39,0.00,,,0.00,Wunderground v.1.15,2014-04-08 00:00:00,
2014-04-07 17:05:00,78.1,52.5,30.09,East,94,0.0,1.0,41,0.00,,,0.00,Wunderground v.1.15,2014-04-08 00:05:00,
2014-04-07 17:10:00,78.1,50.4,30.09,SSE,161,0.0,0.0,38,0.00,,,0.00,Wunderground v.1.15,2014-04-08 00:10:00,
2014-04-07 17:20:00,77.7,51.5,30.09,SE,132,1.0,1.0,40,0.00,,,0.00,Wunderground v.1.15,2014-04-08 00:20:00,
2014-04-07 17:25:00,77.8,50.9,30.09,SE,132,1.0,1.0,39,0.00,,,0.00,Wunderground v.1.15,2014-04-08 00:25:00,
2014-04-07 17:30:00,77.8,50.2,30.09,SSE,158,1.0,1.0,38,0.00,,,0.00,Wunderground v.1.15,2014-04-08 00:30:00,
2014-04-07 17:35:00,77.9,49.5,30.09,SSE,155,1.0,1.0,37,0.00,,,0.00,Wunderground v.1.15,2014-04-08 00:35:00,
2014-04-07 17:45:00,77.1,50.2,30.09,SE,142,1.0,1.0,39,0.00,,,0.00,Wunderground v.1.15,2014-04-08 00:45:00,
2014-04-07 17:50:00,76.9,47.9,30.09,SE,138,0.0,0.0,36,0.00,,,0.00,Wunderground v.1.15,2014-04-08 00:50:00,
2014-04-07 17:55:00,76.7,48.5,30.09,East,101,0.0,0.0,37,0.00,,,0.00,Wunderground v.1.15,2014-04-08 00:55:00,
2014-04-07 18:00:00,76.6,49.1,30.09,East,101,0.0,0.0,38,0.00,,,0.00,Wunderground v.1.15,2014-04-08 01:00:00,
2014-04-07 18:10:00,76.2,49.4,30.09,East,85,0.0,0.0,39,0.00,,,0.00,Wunderground v.1.15,2014-04-08 01:10:00,
2014-04-07 18:15:00,76.1,49.3,30.09,East,85,0.0,0.0,39,0.00,,,0.00,Wunderground v.1.15,2014-04-08 01:15:00,
2014-04-07 18:20:00,75.8,49.8,30.09,East,85,0.0,0.0,40,0.00,,,0.00,Wunderground v.1.15,2014-04-08 01:20:00,
2014-04-07 18:25:00,75.4,48.7,30.09,NE,55,0.0,0.0,39,0.00,,,0.00,Wunderground v.1.15,2014-04-08 01:25:00,
2014-04-07 18:30:00,75.0,49.0,30.09,NE,53,0.0,0.0,40,0.00,,,0.00,Wunderground v.1.15,2014-04-08 01:30:00,
2014-04-07 18:35:00,74.6,47.3,30.09,NW,304,0.0,0.0,38,0.00,,,0.00,Wunderground v.1.15,2014-04-08 01:35:00,
2014-04-07 18:45:00,74.0,47.5,30.08,NW,304,0.0,0.0,39,0.00,,,0.00,Wunderground v.1.15,2014-04-08 01:45:00,
2014-04-07 18:50:00,73.4,48.3,30.09,NW,304,0.0,0.0,41,0.00,,,0.00,Wunderground v.1.15,2014-04-08 01:50:00,
2014-04-07 18:55:00,72.8,49.0,30.09,NW,304,0.0,0.0,43,0.00,,,0.00,Wunderground v.1.15,2014-04-08 01:55:00,
2014-04-07 19:00:00,72.2,49.7,30.09,NW,304,0.0,0.0,45,0.00,,,0.00,Wunderground v.1.15,2014-04-08 02:00:00,
2014-04-07 19:10:00,71.2,50.5,30.08,NW,304,0.0,0.0,48,0.00,,,0.00,Wunderground v.1.15,2014-04-08 02:10:00,
2014-04-07 19:15:00,70.7,50.6,30.08,NW,304,0.0,0.0,49,0.00,,,0.00,Wunderground v.1.15,2014-04-08 02:15:00,
2014-04-07 19:20:00,70.2,51.7,30.08,NW,304,0.0,0.0,52,0.00,,,0.00,Wunderground v.1.15,2014-04-08 02:20:00,
2014-04-07 19:25:00,69.8,51.4,30.08,NW,304,0.0,0.0,52,0.00,,,0.00,Wunderground v.1.15,2014-04-08 02:25:00,
2014-04-07 19:35:00,69.1,52.7,30.08,NW,304,0.0,0.0,56,0.00,,,0.00,Wunderground v.1.15,2014-04-08 02:35:00,
2014-04-07 19:40:00,68.8,53.4,30.08,NW,304,0.0,0.0,58,0.00,,,0.00,Wunderground v.1.15,2014-04-08 02:40:00,
2014-04-07 19:45:00,68.4,53.5,30.08,NW,304,0.0,0.0,59,0.00,,,0.00,Wunderground v.1.15,2014-04-08 02:45:00,
2014-04-07 19:50:00,67.9,53.5,30.08,NW,304,0.0,0.0,60,0.00,,,0.00,Wunderground v.1.15,2014-04-08 02:50:00,
2014-04-07 20:00:00,67.4,53.9,30.08,NW,304,0.0,0.0,62,0.00,,,0.00,Wunderground v.1.15,2014-04-08 03:00:00,
2014-04-07 20:05:00,67.2,53.7,30.08,NW,304,0.0,0.0,62,0.00,,,0.00,Wunderground v.1.15,2014-04-08 03:05:00,
2014-04-07 20:10:00,67.1,53.6,30.08,NW,304,0.0,0.0,62,0.00,,,0.00,Wunderground v.1.15,2014-04-08 03:10:00,
2014-04-07 20:15:00,67.0,53.1,30.08,NW,304,0.0,0.0,61,0.00,,,0.00,Wunderground v.1.15,2014-04-08 03:15:00,
2014-04-07 20:25:00,66.9,52.1,30.08,NW,304,0.0,0.0,59,0.00,,,0.00,Wunderground v.1.15,2014-04-08 03:25:00,
2014-04-07 20:30:00,67.2,51.9,30.08,NW,304,0.0,0.0,58,0.00,,,0.00,Wunderground v.1.15,2014-04-08 03:30:00,
2014-04-07 20:35:00,67.9,52.1,30.08,NW,304,0.0,0.0,57,0.00,,,0.00,Wunderground v.1.15,2014-04-08 03:35:00,
2014-04-07 20:45:00,67.9,52.6,30.09,NW,304,0.0,0.0,58,0.00,,,0.00,Wunderground v.1.15,2014-04-08 03:45:00,
2014-04-07 20:50:00,67.7,52.9,30.09,NW,304,0.0,0.0,59,0.00,,,0.00,Wunderground v.1.15,2014-04-08 03:50:00,
2014-04-07 20:55:00,67.5,52.7,30.09,NW,304,0.0,1.0,59,0.00,,,0.00,Wunderground v.1.15,2014-04-08 03:55:00,
2014-04-07 21:05:00,66.3,52.9,30.09,WNW,302,0.0,0.0,62,0.00,,,0.00,Wunderground v.1.15,2014-04-08 04:05:00,
2014-04-07 21:10:00,65.6,53.1,30.09,WNW,302,0.0,0.0,64,0.00,,,0.00,Wunderground v.1.15,2014-04-08 04:10:00,
2014-04-07 21:15:00,65.1,53.5,30.09,WNW,302,0.0,0.0,66,0.00,,,0.00,Wunderground v.1.15,2014-04-08 04:15:00,
2014-04-07 21:20:00,64.2,53.4,30.09,WNW,302,0.0,1.0,68,0.00,,,0.00,Wunderground v.1.15,2014-04-08 04:20:00,
2014-04-07 21:30:00,62.9,53.4,30.09,WNW,302,0.0,0.0,71,0.00,,,0.00,Wunderground v.1.15,2014-04-08 04:30:00,
2014-04-07 21:35:00,62.4,53.6,30.10,WNW,302,0.0,0.0,73,0.00,,,0.00,Wunderground v.1.15,2014-04-08 04:35:00,
2014-04-07 21:40:00,62.0,53.6,30.10,WNW,302,0.0,0.0,74,0.00,,,0.00,Wunderground v.1.15,2014-04-08 04:40:00,
2014-04-07 21:45:00,61.5,53.5,30.10,WNW,302,0.0,0.0,75,0.00,,,0.00,Wunderground v.1.15,2014-04-08 04:45:00,
2014-04-07 21:55:00,61.1,53.5,30.10,WNW,302,0.0,0.0,76,0.00,,,0.00,Wunderground v.1.15,2014-04-08 04:55:00,
2014-04-07 22:00:00,60.9,52.9,30.10,WNW,302,0.0,0.0,75,0.00,,,0.00,Wunderground v.1.15,2014-04-08 05:00:00,
2014-04-07 22:05:00,60.8,52.8,30.10,WNW,302,0.0,0.0,75,0.00,,,0.00,Wunderground v.1.15,2014-04-08 05:05:00,
2014-04-07 22:15:00,60.6,52.6,30.10,WNW,302,0.0,0.0,75,0.00,,,0.00,Wunderground v.1.15,2014-04-08 05:15:00,
2014-04-07 22:20:00,60.4,53.2,30.10,WNW,302,0.0,0.0,77,0.00,,,0.00,Wunderground v.1.15,2014-04-08 05:20:00,
2014-04-07 22:25:00,60.2,53.3,30.10,WNW,302,0.0,0.0,78,0.00,,,0.00,Wunderground v.1.15,2014-04-08 05:25:00,
2014-04-07 22:30:00,60.0,53.1,30.11,WNW,302,0.0,0.0,78,0.00,,,0.00,Wunderground v.1.15,2014-04-08 05:30:00,
2014-04-07 22:40:00,59.7,52.1,30.10,WNW,302,0.0,0.0,76,0.00,,,0.00,Wunderground v.1.15,2014-04-08 05:40:00,
2014-04-07 22:45:00,59.8,51.5,30.11,WNW,302,0.0,0.0,74,0.00,,,0.00,Wunderground v.1.15,2014-04-08 05:45:00,
2014-04-07 22:50:00,60.1,51.8,30.10,WNW,302,0.0,0.0,74,0.00,,,0.00,Wunderground v.1.15,2014-04-08 05:50:00,
2014-04-07 23:00:00,60.1,51.8,30.10,WNW,302,0.0,0.0,74,0.00,,,0.00,Wunderground v.1.15,2014-04-08 06:00:00,
2014-04-07 23:05:00,59.9,51.6,30.11,WNW,302,0.0,0.0,74,0.00,,,0.00,Wunderground v.1.15,2014-04-08 06:05:00,
2014-04-07 23:15:00,59.7,51.0,30.11,WNW,302,0.0,0.0,73,0.00,,,0.00,Wunderground v.1.15,2014-04-08 06:15:00,
2014-04-07 23:20:00,59.6,50.9,30.10,WNW,302,0.0,0.0,73,0.00,,,0.00,Wunderground v.1.15,2014-04-08 06:20:00,
2014-04-07 23:25:00,59.4,50.0,30.11,WNW,302,0.0,0.0,71,0.00,,,0.00,Wunderground v.1.15,2014-04-08 06:25:00,
2014-04-07 23:30:00,59.3,49.9,30.11,WNW,302,0.0,0.0,71,0.00,,,0.00,Wunderground v.1.15,2014-04-08 06:30:00,
2014-04-07 23:40:00,59.4,49.2,30.10,WNW,302,0.0,0.0,69,0.00,,,0.00,Wunderground v.1.15,2014-04-08 06:40:00,
2014-04-07 23:45:00,59.5,49.3,30.10,WNW,302,0.0,0.0,69,0.00,,,0.00,Wunderground v.1.15,2014-04-08 06:45:00,
2014-04-07 23:50:00,59.4,49.2,30.10,WNW,302,0.0,0.0,69,0.00,,,0.00,Wunderground v.1.15,2014-04-08 06:50:00,